createdAt,value
2022-12-28T00:02:25.740Z,86.10
2022-12-28T00:04:54.144Z,86.30
2022-12-28T00:07:22.330Z,86.30
2022-12-28T00:09:51.870Z,86.20
2022-12-28T00:12:20.079Z,86.20
2022-12-28T00:14:48.375Z,86.20
2022-12-28T00:17:16.575Z,86.20
2022-12-28T00:19:44.779Z,86.20
2022-12-28T00:22:13.237Z,86.10
2022-12-28T00:24:41.418Z,85.90
2022-12-28T00:27:11.116Z,86.00
2022-12-28T00:29:39.481Z,86.30
2022-12-28T00:32:07.751Z,86.50
2022-12-28T00:34:36.033Z,86.70
2022-12-28T00:37:09.377Z,86.90
2022-12-28T00:39:41.925Z,87.10
2022-12-28T00:42:12.303Z,87.40
2022-12-28T00:44:40.679Z,88.10
2022-12-28T00:47:09.010Z,88.10
2022-12-28T00:49:37.419Z,88.50
2022-12-28T00:52:06.328Z,88.70
2022-12-28T00:54:34.587Z,88.80
2022-12-28T00:57:02.773Z,89.10
2022-12-28T00:59:32.323Z,89.00
2022-12-28T01:02:00.650Z,88.90
2022-12-28T01:04:29.018Z,89.10
2022-12-28T01:06:57.495Z,89.10
2022-12-28T01:09:25.987Z,88.90
2022-12-28T01:11:54.200Z,88.90
2022-12-28T01:14:22.429Z,88.80
2022-12-28T01:16:52.020Z,88.80
2022-12-28T01:19:23.394Z,88.50
2022-12-28T01:21:52.462Z,88.40
2022-12-28T01:24:20.876Z,88.30
2022-12-28T01:26:49.083Z,88.40
2022-12-28T01:29:17.284Z,88.30
2022-12-28T01:31:45.481Z,88.20
2022-12-28T01:34:15.142Z,88.00
2022-12-28T01:36:43.393Z,87.90
2022-12-28T01:39:12.182Z,87.90
2022-12-28T01:41:43.221Z,87.70
2022-12-28T01:44:53.687Z,87.40
2022-12-28T01:47:26.183Z,87.20
2022-12-28T01:50:02.946Z,86.80
2022-12-28T01:52:36.976Z,86.70
2022-12-28T01:55:11.197Z,86.50
2022-12-28T01:57:45.493Z,86.80
2022-12-28T02:00:17.593Z,86.80
2022-12-28T02:02:53.943Z,86.50
2022-12-28T02:05:27.702Z,86.30
2022-12-28T02:08:01.105Z,86.20
2022-12-28T02:10:40.558Z,86.30
2022-12-28T02:13:14.675Z,86.10
2022-12-28T02:15:43.394Z,86.10
2022-12-28T02:18:13.495Z,86.00
2022-12-28T02:21:13.838Z,85.80
2022-12-28T02:24:08.877Z,85.70
2022-12-28T02:26:57.316Z,85.90
2022-12-28T02:29:50.287Z,85.60
2022-12-28T02:32:50.441Z,85.50
2022-12-28T02:35:28.218Z,85.50
2022-12-28T02:38:01.804Z,85.50
2022-12-28T02:40:35.272Z,85.50
2022-12-28T02:43:04.287Z,85.40
2022-12-28T02:45:55.716Z,85.20
2022-12-28T02:48:41.533Z,85.30
2022-12-28T02:51:47.651Z,85.20
2022-12-28T02:55:22.680Z,85.40
2022-12-28T02:58:20.063Z,85.40
2022-12-28T03:01:03.408Z,85.50
2022-12-28T03:03:37.995Z,85.30
2022-12-28T03:06:51.741Z,85.10
2022-12-28T03:09:27.631Z,85.20
2022-12-28T03:12:02.880Z,85.20
2022-12-28T03:14:40.322Z,85.20
2022-12-28T03:17:29.535Z,85.10
2022-12-28T03:20:22.940Z,85.30
2022-12-28T03:23:11.750Z,85.00
2022-12-28T03:26:03.975Z,84.80
2022-12-28T03:28:51.886Z,84.90
2022-12-28T03:31:24.824Z,84.80
2022-12-28T03:34:06.653Z,84.90
2022-12-28T03:36:45.820Z,84.80
2022-12-28T03:39:23.785Z,84.50
2022-12-28T03:42:13.392Z,84.50
2022-12-28T03:44:46.434Z,84.80
2022-12-28T03:47:16.268Z,84.80
2022-12-28T03:49:46.114Z,84.90
2022-12-28T03:52:14.735Z,85.00
2022-12-28T03:54:43.053Z,85.30
2022-12-28T03:57:11.529Z,85.30
2022-12-28T03:59:39.687Z,85.30
2022-12-28T04:02:08.049Z,85.40
2022-12-28T04:04:36.316Z,85.50
2022-12-28T04:07:05.870Z,85.90
2022-12-28T04:09:34.213Z,86.10
2022-12-28T04:12:02.484Z,86.10
2022-12-28T04:14:30.694Z,86.30
2022-12-28T04:16:59.002Z,86.40
2022-12-28T04:19:27.714Z,86.70
2022-12-28T04:21:55.989Z,87.10
2022-12-28T04:24:25.532Z,87.30
2022-12-28T04:26:53.766Z,87.50
2022-12-28T04:29:22.022Z,87.30
2022-12-28T04:31:50.444Z,87.40
2022-12-28T04:34:18.756Z,87.40
2022-12-28T04:36:47.502Z,87.60
2022-12-28T04:39:15.747Z,87.90
2022-12-28T04:41:45.332Z,88.00
2022-12-28T04:44:13.601Z,88.10
2022-12-28T04:46:41.896Z,88.00
2022-12-28T04:49:10.222Z,87.80
2022-12-28T04:51:38.537Z,87.80
2022-12-28T04:54:06.827Z,87.80
2022-12-28T04:56:35.031Z,87.90
2022-12-28T04:59:04.637Z,87.80
2022-12-28T05:01:33.197Z,87.80
2022-12-28T05:04:01.582Z,87.90
2022-12-28T05:06:30.450Z,87.90
2022-12-28T05:08:59.289Z,87.80
2022-12-28T05:11:29.868Z,87.80
2022-12-28T05:13:58.391Z,87.80
2022-12-28T05:16:30.701Z,87.80
2022-12-28T05:18:59.501Z,87.80
2022-12-28T05:21:29.446Z,88.00
2022-12-28T05:23:58.261Z,88.10
2022-12-28T05:26:29.210Z,88.10
2022-12-28T05:28:58.619Z,88.10
2022-12-28T05:31:28.982Z,88.00
2022-12-28T05:33:57.441Z,87.90
2022-12-28T05:36:28.065Z,88.00
2022-12-28T05:38:57.750Z,87.90
2022-12-28T05:41:29.126Z,87.80
2022-12-28T05:43:58.642Z,87.80
2022-12-28T05:46:31.016Z,87.80
2022-12-28T05:49:00.126Z,87.70
2022-12-28T05:51:30.769Z,87.60
2022-12-28T05:54:01.074Z,87.70
2022-12-28T05:56:32.476Z,87.50
2022-12-28T05:59:03.081Z,87.60
2022-12-28T06:01:35.530Z,87.60
2022-12-28T06:04:06.666Z,87.70
2022-12-28T06:06:35.976Z,87.70
2022-12-28T06:09:05.353Z,88.10
2022-12-28T06:11:33.719Z,88.40
2022-12-28T06:14:03.701Z,88.50
2022-12-28T06:16:37.216Z,88.50
2022-12-28T06:19:07.740Z,88.40
2022-12-28T06:21:38.551Z,88.40
2022-12-28T06:24:08.785Z,88.40
2022-12-28T06:26:39.390Z,88.30
2022-12-28T06:29:08.210Z,88.40
2022-12-28T06:31:40.141Z,88.20
2022-12-28T06:34:10.074Z,88.30
2022-12-28T06:36:41.374Z,88.30
2022-12-28T06:39:13.675Z,88.30
2022-12-28T06:41:42.481Z,88.20
2022-12-28T06:44:13.399Z,88.30
2022-12-28T06:46:43.049Z,88.30
2022-12-28T06:49:11.393Z,88.50
2022-12-28T06:51:42.044Z,88.70
2022-12-28T06:54:11.510Z,89.00
2022-12-28T06:56:39.903Z,89.30
2022-12-28T06:59:08.623Z,89.60
2022-12-28T07:01:39.268Z,89.60
2022-12-28T07:04:11.288Z,89.70
2022-12-28T07:06:43.725Z,89.80
2022-12-28T07:09:14.749Z,89.80
2022-12-28T07:11:42.886Z,89.80
2022-12-28T07:14:11.860Z,89.80
2022-12-28T07:19:08.526Z,89.80
2022-12-28T07:21:39.830Z,89.70
2022-12-28T07:24:09.522Z,89.60
2022-12-28T07:26:39.173Z,89.50
2022-12-28T07:29:09.406Z,89.50
2022-12-28T07:31:45.292Z,89.50
2022-12-28T07:34:16.289Z,89.40
2022-12-28T07:36:44.856Z,89.30
2022-12-28T07:39:13.227Z,89.40
2022-12-28T07:41:41.489Z,89.40
2022-12-28T07:44:09.713Z,89.40
2022-12-28T07:46:39.296Z,89.50
2022-12-28T07:49:07.785Z,89.60
2022-12-28T07:51:39.897Z,89.60
2022-12-28T07:54:08.495Z,89.60
2022-12-28T07:59:06.514Z,89.90
2022-12-28T08:01:36.737Z,89.90
2022-12-28T08:04:08.169Z,89.80
2022-12-28T08:06:40.308Z,89.90
2022-12-28T08:09:11.556Z,89.90
2022-12-28T08:11:41.711Z,90.00
2022-12-28T08:14:10.897Z,90.10
2022-12-28T08:16:41.477Z,90.00
2022-12-28T08:19:10.719Z,90.00
2022-12-28T08:21:43.997Z,90.20
2022-12-28T08:24:18.114Z,90.00
2022-12-28T08:26:48.352Z,90.10
2022-12-28T08:29:20.039Z,90.00
2022-12-28T08:31:49.365Z,90.00
2022-12-28T08:34:20.194Z,89.90
2022-12-28T08:36:50.147Z,89.90
2022-12-28T08:39:18.444Z,89.90
2022-12-28T08:41:46.701Z,89.80
2022-12-28T08:44:15.008Z,89.70
2022-12-28T08:46:43.214Z,89.50
2022-12-28T08:49:12.119Z,89.40
2022-12-28T08:51:42.637Z,89.20
2022-12-28T08:54:14.853Z,89.20
2022-12-28T08:56:45.483Z,89.10
2022-12-28T08:59:16.410Z,88.90
2022-12-28T09:01:45.283Z,88.90
2022-12-28T09:04:16.952Z,88.80
2022-12-28T09:06:45.302Z,88.60
2022-12-28T09:09:19.304Z,88.50
2022-12-28T09:11:48.106Z,88.50
2022-12-28T09:14:24.924Z,88.40
2022-12-28T09:16:54.189Z,88.30
2022-12-28T09:19:23.539Z,88.40
2022-12-28T09:21:53.807Z,88.50
2022-12-28T09:24:23.966Z,88.40
2022-12-28T09:26:54.543Z,88.40
2022-12-28T09:29:22.814Z,88.40
2022-12-28T09:31:51.132Z,88.30
2022-12-28T09:34:36.640Z,88.20
2022-12-28T09:37:06.599Z,88.20
2022-12-28T09:39:36.386Z,88.10
2022-12-28T09:42:10.417Z,88.00
2022-12-28T09:45:00.551Z,88.10
2022-12-28T09:47:37.297Z,87.80
2022-12-28T09:50:25.764Z,87.80
2022-12-28T09:53:29.347Z,87.70
2022-12-28T09:56:05.741Z,87.60
2022-12-28T09:58:38.729Z,87.50
2022-12-28T10:01:14.108Z,87.50
2022-12-28T10:03:45.441Z,87.60
2022-12-28T10:06:16.819Z,87.70
2022-12-28T10:08:48.523Z,87.70
2022-12-28T10:11:23.339Z,87.90
2022-12-28T10:13:56.955Z,87.80
2022-12-28T10:16:28.044Z,87.60
2022-12-28T10:18:56.909Z,87.70
2022-12-28T10:21:32.760Z,87.80
2022-12-28T10:24:30.301Z,88.00
2022-12-28T10:26:54.251Z,87.80
2022-12-28T10:29:25.291Z,87.80
2022-12-28T10:32:01.828Z,87.70
2022-12-28T10:34:35.277Z,87.70
2022-12-28T10:37:14.451Z,87.50
2022-12-28T10:39:51.409Z,87.20
2022-12-28T10:42:27.676Z,86.80
2022-12-28T10:45:04.181Z,86.80
2022-12-28T10:47:36.700Z,86.80
2022-12-28T10:52:59.457Z,86.80
2022-12-28T10:55:30.427Z,87.00
2022-12-28T10:58:29.644Z,86.90
2022-12-28T11:01:02.924Z,86.90
2022-12-28T11:03:35.378Z,86.90
2022-12-28T11:06:12.887Z,87.00
2022-12-28T11:08:43.986Z,86.50
2022-12-28T11:11:23.169Z,86.40
2022-12-28T11:13:58.432Z,86.20
2022-12-28T11:16:26.912Z,85.80
2022-12-28T11:18:55.214Z,85.40
2022-12-28T11:21:23.693Z,85.50
2022-12-28T11:23:53.496Z,85.40
2022-12-28T11:26:23.094Z,85.10
2022-12-28T11:28:53.876Z,85.70
2022-12-28T11:31:32.334Z,86.20
2022-12-28T11:34:04.971Z,86.80
2022-12-28T11:36:38.964Z,87.00
2022-12-28T11:39:39.654Z,87.00
2022-12-28T11:42:37.964Z,87.30
2022-12-28T11:45:00.408Z,87.20
2022-12-28T11:47:37.156Z,87.50
2022-12-28T11:50:51.998Z,87.20
2022-12-28T11:53:54.657Z,87.30
2022-12-28T11:56:24.359Z,87.50
2022-12-28T11:59:22.648Z,87.70
2022-12-28T12:01:55.257Z,87.50
2022-12-28T12:04:37.447Z,87.60
2022-12-28T12:07:48.025Z,87.80
2022-12-28T12:10:35.029Z,87.80
2022-12-28T12:13:44.554Z,87.90
2022-12-28T12:16:30.277Z,87.90
2022-12-28T12:19:00.740Z,88.20
2022-12-28T12:21:35.479Z,87.90
2022-12-28T12:24:18.372Z,87.30
2022-12-28T12:26:51.171Z,87.20
2022-12-28T12:29:24.268Z,86.80
2022-12-28T12:32:01.738Z,86.30
2022-12-28T12:34:44.041Z,86.70
2022-12-28T12:37:39.238Z,86.70
2022-12-28T12:40:47.201Z,86.00
2022-12-28T12:43:30.323Z,86.40
2022-12-28T12:46:24.756Z,86.30
2022-12-28T12:49:26.009Z,86.00
2022-12-28T12:52:06.333Z,85.10
2022-12-28T12:54:50.486Z,85.30
2022-12-28T12:57:25.086Z,85.60
2022-12-28T13:00:12.864Z,85.00
2022-12-28T13:03:20.138Z,84.80
2022-12-28T13:05:54.111Z,84.30
2022-12-28T13:08:28.119Z,84.30
2022-12-28T13:10:57.134Z,83.90
2022-12-28T13:13:34.245Z,83.70
2022-12-28T13:16:06.853Z,83.70
2022-12-28T13:18:50.662Z,83.00
2022-12-28T13:21:22.252Z,82.70
2022-12-28T13:23:53.002Z,82.00
2022-12-28T13:26:28.387Z,82.20
2022-12-28T13:29:01.231Z,82.10
2022-12-28T13:31:36.426Z,81.50
2022-12-28T13:34:07.164Z,81.60
2022-12-28T13:36:35.517Z,81.30
2022-12-28T13:39:12.755Z,81.50
2022-12-28T13:41:49.820Z,81.10
2022-12-28T13:44:40.446Z,81.40
2022-12-28T13:47:19.955Z,81.30
2022-12-28T13:49:55.665Z,81.10
2022-12-28T13:52:29.090Z,81.00
2022-12-28T13:55:04.876Z,80.90
2022-12-28T13:57:55.735Z,81.40
2022-12-28T14:00:24.236Z,80.90
2022-12-28T14:02:55.434Z,81.10
2022-12-28T14:05:27.816Z,80.90
2022-12-28T14:07:57.967Z,80.90
2022-12-28T14:10:28.512Z,80.40
2022-12-28T14:12:57.996Z,80.60
2022-12-28T14:15:26.610Z,80.70
2022-12-28T14:17:55.513Z,80.70
2022-12-28T14:20:23.910Z,80.70
2022-12-28T14:22:52.267Z,80.70
2022-12-28T14:25:23.493Z,80.70
2022-12-28T14:28:01.037Z,80.50
2022-12-28T14:30:33.103Z,80.20
2022-12-28T14:33:19.523Z,80.20
2022-12-28T14:35:55.376Z,80.20
2022-12-28T14:38:28.920Z,80.10
2022-12-28T14:41:00.137Z,79.70
2022-12-28T14:43:32.862Z,80.00
2022-12-28T14:46:18.874Z,79.90
2022-12-28T14:48:47.317Z,80.20
2022-12-28T14:51:29.919Z,80.00
2022-12-28T14:54:20.903Z,79.70
2022-12-28T14:56:54.662Z,79.90
2022-12-28T14:59:29.796Z,79.70
2022-12-28T15:01:58.545Z,79.80
2022-12-28T15:04:37.003Z,80.00
2022-12-28T15:07:06.438Z,79.70
2022-12-28T15:09:34.784Z,79.60
2022-12-28T15:12:14.839Z,79.30
2022-12-28T15:14:44.974Z,79.20
2022-12-28T15:17:13.855Z,79.20
2022-12-28T15:19:44.952Z,79.00
2022-12-28T15:22:13.811Z,79.30
2022-12-28T15:24:45.445Z,79.40
2022-12-28T15:27:14.018Z,79.30
2022-12-28T15:32:31.808Z,79.00
2022-12-28T15:35:00.096Z,79.00
2022-12-28T15:37:28.346Z,78.70
2022-12-28T15:39:56.770Z,78.90
2022-12-28T15:42:25.092Z,78.70
2022-12-28T15:44:54.842Z,78.50
2022-12-28T15:47:23.278Z,78.70
2022-12-28T15:49:51.687Z,78.60
2022-12-28T15:52:19.909Z,78.30
2022-12-28T15:54:48.287Z,78.20
2022-12-28T15:57:16.604Z,78.10
2022-12-28T15:59:44.972Z,78.20
2022-12-28T16:02:14.799Z,78.20
2022-12-28T16:04:43.710Z,78.50
2022-12-28T16:07:12.106Z,78.80
2022-12-28T16:09:40.484Z,79.00
2022-12-28T16:12:09.288Z,78.80
2022-12-28T16:14:37.845Z,78.80
2022-12-28T16:17:06.124Z,78.70
2022-12-28T16:19:35.787Z,78.60
2022-12-28T16:22:04.031Z,78.40
2022-12-28T16:24:32.404Z,78.70
2022-12-28T16:27:00.650Z,79.40
2022-12-28T16:29:28.830Z,79.90
2022-12-28T16:31:59.889Z,79.60
2022-12-28T16:34:28.832Z,79.90
2022-12-28T16:36:59.438Z,80.70
2022-12-28T16:39:29.741Z,80.70
2022-12-28T16:41:58.802Z,81.50
2022-12-28T16:44:29.408Z,81.80
2022-12-28T16:46:59.987Z,82.00
2022-12-28T16:49:29.608Z,82.30
2022-12-28T16:51:59.689Z,83.20
2022-12-28T16:54:29.301Z,83.00
2022-12-28T16:56:57.670Z,83.50
2022-12-28T16:59:28.854Z,83.70
2022-12-28T17:01:59.005Z,84.20
2022-12-28T17:04:27.941Z,84.50
2022-12-28T17:06:56.212Z,84.90
2022-12-28T17:09:25.794Z,85.00
2022-12-28T17:11:54.095Z,85.10
2022-12-28T17:14:37.052Z,85.30
2022-12-28T17:17:06.841Z,85.40
2022-12-28T17:19:35.862Z,85.30
2022-12-28T17:22:05.526Z,85.30
2022-12-28T17:24:37.246Z,85.20
2022-12-28T17:27:09.678Z,85.00
2022-12-28T17:29:40.473Z,84.70
2022-12-28T17:32:09.146Z,84.50
2022-12-28T17:34:38.052Z,84.40
2022-12-28T17:37:06.419Z,84.40
2022-12-28T17:39:40.928Z,84.30
2022-12-28T17:42:10.296Z,84.50
2022-12-28T17:44:38.775Z,85.00
2022-12-28T17:47:07.124Z,84.90
2022-12-28T17:49:35.427Z,85.30
2022-12-28T17:52:03.966Z,85.50
2022-12-28T17:54:32.395Z,85.80
2022-12-28T17:57:02.185Z,86.00
2022-12-28T17:59:30.688Z,86.20
2022-12-28T18:02:01.524Z,86.40
2022-12-28T18:04:29.893Z,86.90
2022-12-28T18:06:58.330Z,86.90
2022-12-28T18:09:28.110Z,87.20
2022-12-28T18:11:56.946Z,87.60
2022-12-28T18:14:27.385Z,87.60
2022-12-28T18:16:56.549Z,88.10
2022-12-28T18:19:24.871Z,88.30
2022-12-28T18:21:53.175Z,88.60
2022-12-28T18:24:22.021Z,88.90
2022-12-28T18:26:50.534Z,89.00
2022-12-28T18:29:18.848Z,89.20
2022-12-28T18:31:48.536Z,89.60
2022-12-28T18:34:16.822Z,89.40
2022-12-28T18:36:45.117Z,89.90
2022-12-28T18:39:13.496Z,90.00
2022-12-28T18:41:41.789Z,90.30
2022-12-28T18:44:10.367Z,90.30
2022-12-28T18:46:38.739Z,90.50
2022-12-28T18:49:08.389Z,90.70
2022-12-28T18:51:37.068Z,90.60
2022-12-28T18:54:05.859Z,90.80
2022-12-28T18:56:34.107Z,90.50
2022-12-28T18:59:02.495Z,90.70
2022-12-28T19:04:22.021Z,90.80
2022-12-28T19:06:50.545Z,90.70
2022-12-28T19:09:19.073Z,90.30
2022-12-28T19:11:47.455Z,90.30
2022-12-28T19:14:17.122Z,90.30
2022-12-28T19:16:45.444Z,90.20
2022-12-28T19:19:13.795Z,89.90
2022-12-28T19:21:44.933Z,90.00
2022-12-28T19:24:14.563Z,90.00
2022-12-28T19:26:43.127Z,89.90
2022-12-28T19:29:12.912Z,89.80
2022-12-28T19:31:41.362Z,89.10
2022-12-28T19:34:09.909Z,89.00
2022-12-28T19:36:38.271Z,88.90
2022-12-28T19:39:08.257Z,89.00
2022-12-28T19:41:36.618Z,88.90
2022-12-28T19:44:05.256Z,88.80
2022-12-28T19:46:34.032Z,88.50
2022-12-28T19:49:05.226Z,88.60
2022-12-28T19:51:34.147Z,88.20
2022-12-28T19:54:03.195Z,88.20
2022-12-28T19:56:33.194Z,88.20
2022-12-28T19:59:06.477Z,88.10
2022-12-28T20:01:36.888Z,88.00
2022-12-28T20:04:12.969Z,87.70
2022-12-28T20:06:43.427Z,87.20
2022-12-28T20:09:12.293Z,87.30
2022-12-28T20:11:42.463Z,87.30
2022-12-28T20:14:14.081Z,87.00
2022-12-28T20:16:42.938Z,86.90
2022-12-28T20:19:12.195Z,86.90
2022-12-28T20:21:42.387Z,86.90
2022-12-28T20:24:13.619Z,86.90
2022-12-28T20:26:43.245Z,86.90
2022-12-28T20:29:13.449Z,87.20
2022-12-28T20:31:41.822Z,86.90
2022-12-28T20:34:10.172Z,86.80
2022-12-28T20:36:38.460Z,87.00
2022-12-28T20:39:07.041Z,86.90
2022-12-28T20:41:52.752Z,86.80
2022-12-28T20:44:26.022Z,86.60
2022-12-28T20:46:54.851Z,86.60
2022-12-28T20:49:23.985Z,86.70
2022-12-28T20:51:53.093Z,86.60
2022-12-28T20:54:22.336Z,86.70
2022-12-28T20:56:55.503Z,86.50
2022-12-28T20:59:26.387Z,86.60
2022-12-28T21:01:55.685Z,86.40
2022-12-28T21:04:25.835Z,86.50
2022-12-28T21:06:54.901Z,86.50
2022-12-28T21:09:23.430Z,86.50
2022-12-28T21:11:52.027Z,86.50
2022-12-28T21:14:20.515Z,86.80
2022-12-28T21:16:50.570Z,86.80
2022-12-28T21:19:18.934Z,86.90
2022-12-28T21:21:48.649Z,86.60
2022-12-28T21:24:19.030Z,86.70
2022-12-28T21:26:47.537Z,86.50
2022-12-28T21:29:20.596Z,86.50
2022-12-28T21:31:55.451Z,86.30
2022-12-28T21:34:24.412Z,86.40
2022-12-28T21:36:52.641Z,86.70
2022-12-28T21:39:21.146Z,86.70
2022-12-28T21:41:49.574Z,86.50
2022-12-28T21:44:20.620Z,86.60
2022-12-28T21:46:50.565Z,86.80
2022-12-28T21:49:21.527Z,86.80
2022-12-28T21:51:50.182Z,87.00
2022-12-28T21:54:21.044Z,87.00
2022-12-28T21:56:53.323Z,87.20
2022-12-28T21:59:22.809Z,87.30
2022-12-28T22:02:08.749Z,87.50
2022-12-28T22:05:02.199Z,87.60
2022-12-28T22:07:31.955Z,87.70
2022-12-28T22:10:17.514Z,87.90
2022-12-28T22:12:45.881Z,88.00
2022-12-28T22:15:34.611Z,88.10
2022-12-28T22:18:05.714Z,88.20
2022-12-28T22:20:36.792Z,88.30
2022-12-28T22:23:06.992Z,88.40
2022-12-28T22:25:38.335Z,88.40
2022-12-28T22:28:07.788Z,88.40
2022-12-28T22:30:37.958Z,88.30
2022-12-28T22:33:07.139Z,88.30
2022-12-28T22:35:36.888Z,88.20
2022-12-28T22:38:05.187Z,88.10
2022-12-28T22:40:33.412Z,88.10
2022-12-28T22:43:01.652Z,88.00
2022-12-28T22:45:29.902Z,88.00
2022-12-28T22:47:59.546Z,88.10
2022-12-28T22:50:29.216Z,88.00
2022-12-28T22:52:59.226Z,87.90
2022-12-28T22:55:27.534Z,87.80
2022-12-28T22:57:55.781Z,87.80
2022-12-28T23:00:24.141Z,87.70
2022-12-28T23:02:52.624Z,87.70
2022-12-28T23:05:21.020Z,87.50
2022-12-28T23:07:49.311Z,87.60
2022-12-28T23:10:19.060Z,87.50
2022-12-28T23:12:47.279Z,87.50
2022-12-28T23:15:19.407Z,87.50
2022-12-28T23:17:48.955Z,87.50
2022-12-28T23:20:35.857Z,87.50
2022-12-28T23:23:22.137Z,87.40
2022-12-28T23:26:09.261Z,87.40
2022-12-28T23:28:37.478Z,87.50
2022-12-28T23:31:08.057Z,87.40
2022-12-28T23:33:36.862Z,87.40
2022-12-28T23:36:06.415Z,87.30
2022-12-28T23:38:37.425Z,87.30
2022-12-28T23:41:27.827Z,87.40
2022-12-28T23:43:56.025Z,87.50
2022-12-28T23:46:24.332Z,87.80
2022-12-28T23:48:52.616Z,88.60
2022-12-28T23:51:20.853Z,89.40
2022-12-28T23:53:49.139Z,89.90
2022-12-28T23:56:18.698Z,90.20
2022-12-28T23:58:47.013Z,90.30
